createdAt,value
2023-04-10T00:01:36.397Z,6.47
2023-04-10T00:06:44.702Z,7.27
2023-04-10T00:11:50.476Z,6.33
2023-04-10T00:16:56.429Z,6.30
2023-04-10T00:22:02.333Z,6.27
2023-04-10T00:27:07.780Z,7.90
2023-04-10T00:32:13.460Z,6.27
2023-04-10T00:37:19.118Z,7.27
2023-04-10T00:42:24.552Z,9.73
2023-04-10T00:47:31.032Z,10.57
2023-04-10T00:52:37.815Z,5.90
2023-04-10T00:57:47.535Z,9.00
2023-04-10T01:02:53.179Z,7.77
2023-04-10T01:08:21.075Z,9.47
2023-04-10T01:13:38.290Z,6.43
2023-04-10T01:18:49.433Z,9.33
2023-04-10T01:24:09.439Z,6.43
2023-04-10T01:29:19.624Z,6.20
2023-04-10T01:34:31.496Z,5.87
2023-04-10T01:39:40.612Z,7.80
2023-04-10T01:44:48.296Z,5.30
2023-04-10T01:49:55.879Z,7.80
2023-04-10T01:55:03.703Z,5.87
2023-04-10T02:00:11.715Z,7.67
2023-04-10T02:05:19.808Z,7.17
2023-04-10T02:10:28.348Z,6.73
2023-04-10T02:15:38.032Z,6.37
2023-04-10T02:20:44.328Z,8.43
2023-04-10T02:25:51.082Z,6.73
2023-04-10T02:30:56.573Z,7.63
2023-04-10T02:36:02.883Z,5.43
2023-04-10T02:41:08.512Z,5.13
2023-04-10T02:46:14.589Z,7.87
2023-04-10T02:51:20.439Z,6.47
2023-04-10T02:56:27.276Z,7.33
2023-04-10T03:01:32.799Z,7.00
2023-04-10T03:06:38.417Z,5.60
2023-04-10T03:11:44.124Z,7.97
2023-04-10T03:16:50.567Z,7.13
2023-04-10T03:21:58.620Z,7.63
2023-04-10T03:27:04.121Z,6.33
2023-04-10T03:32:09.899Z,8.17
2023-04-10T03:37:15.764Z,8.17
2023-04-10T03:42:21.380Z,7.33
2023-04-10T03:47:27.456Z,7.53
2023-04-10T03:52:33.060Z,7.73
2023-04-10T03:57:38.745Z,8.40
2023-04-10T04:02:45.274Z,7.20
2023-04-10T04:07:52.649Z,8.60
2023-04-10T04:13:12.113Z,7.33
2023-04-10T04:18:28.405Z,7.20
2023-04-10T04:23:36.105Z,6.40
2023-04-10T04:28:43.298Z,7.17
2023-04-10T04:34:00.336Z,7.83
2023-04-10T04:39:16.954Z,6.90
2023-04-10T04:44:30.106Z,7.17
2023-04-10T04:49:37.306Z,8.10
2023-04-10T04:54:47.108Z,7.97
2023-04-10T05:00:00.516Z,7.30
2023-04-10T05:05:24.688Z,6.27
2023-04-10T05:10:31.908Z,6.23
2023-04-10T05:15:43.190Z,6.80
2023-04-10T05:20:53.461Z,7.13
2023-04-10T05:26:00.715Z,6.27
2023-04-10T05:31:16.796Z,7.27
2023-04-10T05:36:30.002Z,7.60
2023-04-10T05:41:37.257Z,5.57
2023-04-10T05:47:00.739Z,6.07
2023-04-10T05:52:20.008Z,7.67
2023-04-10T05:57:31.025Z,9.80
2023-04-10T06:02:43.277Z,11.07
2023-04-10T06:07:51.775Z,9.40
2023-04-10T06:12:57.581Z,9.50
2023-04-10T06:18:05.423Z,15.00
2023-04-10T06:23:12.577Z,14.10
2023-04-10T06:28:18.132Z,12.93
2023-04-10T06:33:26.406Z,14.70
2023-04-10T06:38:33.979Z,11.73
2023-04-10T06:43:41.327Z,9.23
2023-04-10T06:48:46.760Z,12.73
2023-04-10T06:53:52.359Z,9.20
2023-04-10T06:58:57.940Z,10.37
2023-04-10T07:04:03.550Z,10.17
2023-04-10T07:09:09.139Z,8.67
2023-04-10T07:14:14.744Z,9.33
2023-04-10T07:19:21.113Z,9.20
2023-04-10T07:24:27.338Z,8.67
2023-04-10T07:29:32.900Z,8.63
2023-04-10T07:34:38.424Z,9.30
2023-04-10T07:39:43.864Z,6.50
2023-04-10T07:44:49.402Z,8.57
2023-04-10T07:49:54.910Z,7.83
2023-04-10T07:55:05.055Z,8.27
2023-04-10T08:00:11.751Z,6.77
2023-04-10T08:05:20.706Z,10.00
2023-04-10T08:10:26.396Z,7.83
2023-04-10T08:15:31.900Z,8.43
2023-04-10T08:20:37.507Z,7.47
2023-04-10T08:25:43.019Z,10.67
2023-04-10T08:30:48.589Z,8.43
2023-04-10T08:35:54.115Z,8.07
2023-04-10T08:40:59.913Z,8.07
2023-04-10T08:46:06.190Z,7.93
2023-04-10T08:51:19.434Z,9.67
2023-04-10T08:56:23.046Z,6.90
2023-04-10T09:01:28.765Z,8.17
2023-04-10T09:06:34.363Z,5.67
2023-04-10T09:11:59.535Z,8.47
2023-04-10T09:17:20.034Z,7.93
2023-04-10T09:22:36.791Z,7.07
2023-04-10T09:27:42.523Z,5.43
2023-04-10T09:32:48.019Z,6.80
2023-04-10T09:37:53.697Z,4.27
2023-04-10T09:42:59.349Z,5.67
2023-04-10T09:48:07.484Z,6.07
2023-04-10T09:53:16.566Z,4.40
2023-04-10T09:58:23.579Z,6.73
2023-04-10T10:03:30.052Z,6.03
2023-04-10T10:08:37.558Z,7.27
2023-04-10T10:13:58.537Z,6.93
2023-04-10T10:19:16.329Z,7.47
2023-04-10T10:24:23.904Z,6.47
2023-04-10T10:29:32.445Z,7.90
2023-04-10T10:34:38.395Z,8.50
2023-04-10T10:39:52.851Z,8.10
2023-04-10T10:45:19.674Z,7.00
2023-04-10T10:50:25.344Z,8.97
2023-04-10T10:55:37.615Z,10.03
2023-04-10T11:00:56.632Z,8.30
2023-04-10T11:06:08.452Z,8.27
2023-04-10T11:11:17.164Z,8.87
2023-04-10T11:16:24.563Z,11.87
2023-04-10T11:21:30.588Z,10.60
2023-04-10T11:26:44.424Z,10.43
2023-04-10T11:32:01.175Z,9.80
2023-04-10T11:37:07.238Z,13.83
2023-04-10T11:42:12.918Z,10.63
2023-04-10T11:47:18.422Z,10.33
2023-04-10T11:52:27.413Z,9.20
2023-04-10T11:57:36.405Z,11.43
2023-04-10T12:02:53.688Z,9.70
2023-04-10T12:07:59.996Z,10.30
2023-04-10T12:13:06.264Z,9.70
2023-04-10T12:18:12.604Z,13.87
2023-04-10T12:23:19.275Z,9.37
2023-04-10T12:28:24.803Z,10.87
2023-04-10T12:33:30.481Z,8.90
2023-04-10T12:38:44.003Z,9.20
2023-04-10T12:43:49.881Z,9.23
2023-04-10T12:49:00.186Z,9.70
2023-04-10T12:54:05.871Z,10.13
2023-04-10T12:59:11.599Z,9.80
2023-04-10T13:04:18.811Z,11.37
2023-04-10T13:09:24.353Z,10.40
2023-04-10T13:14:29.871Z,9.50
2023-04-10T13:19:35.417Z,9.57
2023-04-10T13:24:41.081Z,10.93
2023-04-10T13:29:46.738Z,7.97
2023-04-10T13:34:53.855Z,11.57
2023-04-10T13:39:59.317Z,7.60
2023-04-10T13:45:05.977Z,9.20
2023-04-10T13:50:12.157Z,10.10
2023-04-10T13:55:17.845Z,8.97
2023-04-10T14:00:23.474Z,9.77
2023-04-10T14:05:30.458Z,8.53
2023-04-10T14:10:36.047Z,8.83
2023-04-10T14:15:41.584Z,9.10
2023-04-10T14:20:47.178Z,8.57
2023-04-10T14:25:52.864Z,7.63
2023-04-10T14:30:58.547Z,8.33
2023-04-10T14:36:04.247Z,7.23
2023-04-10T14:41:09.957Z,7.93
2023-04-10T14:46:15.796Z,8.60
2023-04-10T14:51:21.265Z,7.40
2023-04-10T14:56:26.935Z,7.10
2023-04-10T15:01:32.392Z,8.80
2023-04-10T15:06:37.966Z,8.20
2023-04-10T15:11:43.414Z,7.50
2023-04-10T15:16:48.918Z,8.53
2023-04-10T15:21:55.428Z,7.50
2023-04-10T15:27:01.678Z,6.93
2023-04-10T15:32:07.869Z,7.50
2023-04-10T15:37:13.388Z,7.20
2023-04-10T15:42:18.973Z,7.20
2023-04-10T15:47:24.849Z,7.10
2023-04-10T15:52:32.068Z,7.43
2023-04-10T15:57:37.630Z,7.13
2023-04-10T16:02:43.519Z,6.73
2023-04-10T16:07:49.260Z,7.37
2023-04-10T16:12:56.676Z,8.37
2023-04-10T16:18:02.136Z,8.10
2023-04-10T16:23:07.725Z,7.33
2023-04-10T16:28:13.379Z,7.90
2023-04-10T16:33:18.826Z,8.67
2023-04-10T16:38:24.647Z,7.73
2023-04-10T16:43:30.260Z,8.53
2023-04-10T16:48:37.016Z,8.10
2023-04-10T16:53:42.600Z,8.87
2023-04-10T16:58:48.098Z,7.37
2023-04-10T17:03:54.729Z,7.60
2023-04-10T17:09:00.272Z,8.27
2023-04-10T17:14:07.413Z,7.77
2023-04-10T17:19:13.192Z,7.57
2023-04-10T17:24:18.709Z,6.93
2023-04-10T17:29:25.868Z,8.00
2023-04-10T17:34:31.494Z,7.70
2023-04-10T17:39:36.998Z,7.20
2023-04-10T17:44:42.547Z,6.80
2023-04-10T17:49:48.217Z,7.47
2023-04-10T17:54:53.722Z,6.87
2023-04-10T17:59:59.522Z,7.93
2023-04-10T18:05:06.600Z,7.67
2023-04-10T18:10:12.668Z,7.73
2023-04-10T18:15:18.912Z,6.70
2023-04-10T18:20:24.696Z,7.57
2023-04-10T18:25:30.147Z,7.80
2023-04-10T18:30:37.293Z,7.80
2023-04-10T18:35:42.947Z,6.67
2023-04-10T18:40:48.541Z,8.30
2023-04-10T18:45:55.108Z,7.00
2023-04-10T18:51:00.788Z,7.77
2023-04-10T18:56:06.639Z,6.90
2023-04-10T19:01:12.563Z,7.53
2023-04-10T19:06:18.045Z,9.37
2023-04-10T19:11:23.632Z,9.07
2023-04-10T19:16:29.171Z,7.97
2023-04-10T19:21:34.909Z,7.47
2023-04-10T19:26:40.759Z,7.33
2023-04-10T19:31:46.292Z,9.77
2023-04-10T19:36:51.825Z,7.70
2023-04-10T19:41:57.819Z,8.37
2023-04-10T19:47:03.828Z,11.00
2023-04-10T19:52:09.810Z,9.10
2023-04-10T19:57:15.587Z,8.97
2023-04-10T20:02:22.972Z,9.67
2023-04-10T20:07:29.604Z,9.77
2023-04-10T20:12:35.408Z,10.50
2023-04-10T20:17:41.753Z,9.10
2023-04-10T20:22:47.381Z,9.27
2023-04-10T20:27:52.955Z,9.83
2023-04-10T20:32:58.414Z,8.47
2023-04-10T20:38:05.086Z,10.17
2023-04-10T20:43:14.225Z,11.07
2023-04-10T20:48:19.997Z,10.87
2023-04-10T20:53:26.778Z,12.63
2023-04-10T20:58:32.225Z,11.47
2023-04-10T21:03:37.813Z,12.30
2023-04-10T21:08:43.615Z,11.23
2023-04-10T21:13:49.428Z,12.30
2023-04-10T21:18:55.007Z,12.83
2023-04-10T21:24:00.843Z,12.07
2023-04-10T21:29:06.503Z,12.13
2023-04-10T21:34:12.169Z,13.67
2023-04-10T21:39:17.702Z,15.40
2023-04-10T21:44:23.224Z,14.03
2023-04-10T21:49:28.706Z,13.00
2023-04-10T21:54:34.589Z,14.87
2023-04-10T21:59:40.056Z,12.73
2023-04-10T22:04:53.962Z,14.00
2023-04-10T22:09:52.687Z,15.77
2023-04-10T22:14:58.154Z,13.90
2023-04-10T22:20:03.886Z,13.50
2023-04-10T22:25:10.062Z,14.30
2023-04-10T22:30:16.219Z,13.47
2023-04-10T22:35:21.806Z,14.23
2023-04-10T22:40:27.397Z,14.03
2023-04-10T22:45:32.921Z,13.73
2023-04-10T22:50:38.610Z,13.60
2023-04-10T22:55:44.068Z,14.97
2023-04-10T23:00:49.504Z,14.57
2023-04-10T23:05:55.083Z,18.17
2023-04-10T23:11:00.662Z,13.97
2023-04-10T23:16:06.832Z,13.87
2023-04-10T23:21:12.417Z,15.10
2023-04-10T23:26:17.874Z,15.83
2023-04-10T23:31:23.495Z,13.17
2023-04-10T23:36:29.036Z,14.43
2023-04-10T23:41:35.057Z,14.50
2023-04-10T23:46:40.665Z,15.33
2023-04-10T23:51:47.166Z,12.23
2023-04-10T23:56:52.781Z,16.00
